CFG1576 EDDM-LEIB
Flight info
| Callsign | CFG1576 |
|---|---|
| Flight time | N/A |
| Altitude | 33000 |
| Route | TURBU6E/08R TURBU Y107 TOBSO DCT BAKOR DCT MISPO DCT PIDAD DCT TALEP DCT RARQU DCT BALEN DCT SORAS N850 POS |
| Aircraft | A320/M-SDE3FGHIRWY/LB1 |
Departure
| Time | N/A |
|---|---|
| Airport | Munich Airport (EDDM) |
Arrival
| Time | 2026-05-06 17:41 |
|---|---|
| Airport | Ibiza Airport (LEIB) |
| Time | Latitude | Longitude | Altitude | Speed | Heading |
|---|---|---|---|---|---|
| 2026-05-06 16:21 | 42.88204 | 7.98461 | 32903 ft | 362 kts | 223° |
| 2026-05-06 16:21 | 42.86335 | 7.96155 | 32906 ft | 362 kts | 223° |
| 2026-05-06 16:21 | 42.82607 | 7.91559 | 32905 ft | 361 kts | 223° |
| 2026-05-06 16:22 | 42.78880 | 7.86962 | 32912 ft | 361 kts | 223° |
| 2026-05-06 16:22 | 42.75150 | 7.82376 | 32913 ft | 361 kts | 223° |
| 2026-05-06 16:23 | 42.71411 | 7.77790 | 32910 ft | 361 kts | 223° |
| 2026-05-06 16:23 | 42.67708 | 7.73242 | 32909 ft | 361 kts | 223° |
| 2026-05-06 16:24 | 42.63976 | 7.68665 | 32912 ft | 361 kts | 223° |
| 2026-05-06 16:24 | 42.60237 | 7.64091 | 32909 ft | 361 kts | 223° |
| 2026-05-06 16:25 | 42.56500 | 7.59533 | 32914 ft | 361 kts | 223° |
| 2026-05-06 16:25 | 42.52759 | 7.54976 | 32909 ft | 361 kts | 223° |
| 2026-05-06 16:26 | 42.49046 | 7.50454 | 32917 ft | 361 kts | 223° |
| 2026-05-06 16:26 | 42.45302 | 7.45908 | 32910 ft | 361 kts | 223° |
| 2026-05-06 16:27 | 42.41548 | 7.41358 | 32914 ft | 361 kts | 223° |
| 2026-05-06 16:27 | 42.37801 | 7.36825 | 32913 ft | 361 kts | 223° |
| 2026-05-06 16:28 | 42.34048 | 7.32288 | 32916 ft | 362 kts | 223° |
| 2026-05-06 16:28 | 42.30290 | 7.27762 | 32916 ft | 362 kts | 223° |
| 2026-05-06 16:29 | 42.26551 | 7.23265 | 32918 ft | 362 kts | 223° |
| 2026-05-06 16:29 | 42.22796 | 7.18733 | 32925 ft | 362 kts | 223° |
| 2026-05-06 16:30 | 42.19671 | 7.14970 | 32930 ft | 362 kts | 223° |
| 2026-05-06 16:30 | 42.15295 | 7.09726 | 32929 ft | 362 kts | 223° |
| 2026-05-06 16:31 | 42.11528 | 7.05226 | 32929 ft | 362 kts | 223° |
| 2026-05-06 16:31 | 42.07760 | 7.00735 | 32934 ft | 362 kts | 223° |
| 2026-05-06 16:32 | 42.03992 | 6.96251 | 32927 ft | 362 kts | 223° |
| 2026-05-06 16:32 | 42.00221 | 6.91766 | 32928 ft | 362 kts | 223° |
| 2026-05-06 16:33 | 41.96457 | 6.87283 | 32931 ft | 362 kts | 223° |
| 2026-05-06 16:34 | 41.90799 | 6.80567 | 32931 ft | 361 kts | 223° |
| 2026-05-06 16:34 | 41.87052 | 6.76134 | 32934 ft | 361 kts | 223° |
| 2026-05-06 16:35 | 41.83276 | 6.71668 | 32933 ft | 361 kts | 223° |
| 2026-05-06 16:35 | 41.79504 | 6.67215 | 32936 ft | 361 kts | 223° |
| 2026-05-06 16:36 | 41.75727 | 6.62766 | 32930 ft | 361 kts | 223° |
| 2026-05-06 16:36 | 41.71942 | 6.58325 | 32935 ft | 361 kts | 223° |
| 2026-05-06 16:37 | 41.68186 | 6.53921 | 32930 ft | 361 kts | 223° |
| 2026-05-06 16:37 | 41.64407 | 6.49480 | 32934 ft | 361 kts | 223° |
| 2026-05-06 16:38 | 41.60625 | 6.45053 | 32931 ft | 361 kts | 223° |
| 2026-05-06 16:38 | 41.56830 | 6.40625 | 32934 ft | 361 kts | 223° |
| 2026-05-06 16:39 | 41.53042 | 6.36199 | 32934 ft | 361 kts | 223° |
| 2026-05-06 16:39 | 41.49252 | 6.31778 | 32939 ft | 361 kts | 223° |
| 2026-05-06 16:40 | 41.45481 | 6.27402 | 32937 ft | 361 kts | 223° |
| 2026-05-06 16:40 | 41.41691 | 6.23002 | 32939 ft | 361 kts | 223° |
| 2026-05-06 16:41 | 41.37896 | 6.18615 | 32933 ft | 361 kts | 223° |
| 2026-05-06 16:41 | 41.34097 | 6.14226 | 32931 ft | 362 kts | 223° |
| 2026-05-06 16:42 | 41.30304 | 6.09830 | 32931 ft | 362 kts | 223° |
| 2026-05-06 16:42 | 41.26500 | 6.05434 | 32936 ft | 362 kts | 223° |
| 2026-05-06 16:43 | 41.23065 | 6.00650 | 32931 ft | 360 kts | 234° |
| 2026-05-06 16:43 | 41.20222 | 5.95084 | 33164 ft | 368 kts | 236° |
| 2026-05-06 16:43 | 41.18824 | 5.92228 | 33415 ft | 369 kts | 236° |
| 2026-05-06 16:44 | 41.17432 | 5.89371 | 33731 ft | 368 kts | 236° |
| 2026-05-06 16:44 | 41.16033 | 5.86519 | 34041 ft | 367 kts | 236° |
| 2026-05-06 16:44 | 41.14632 | 5.83683 | 34311 ft | 367 kts | 236° |
| 2026-05-06 16:44 | 41.13232 | 5.80859 | 34558 ft | 366 kts | 236° |
| 2026-05-06 16:45 | 41.11846 | 5.78072 | 34796 ft | 366 kts | 236° |
| 2026-05-06 16:45 | 41.10442 | 5.75257 | 34931 ft | 366 kts | 236° |
| 2026-05-06 16:45 | 41.09036 | 5.72441 | 34955 ft | 366 kts | 236° |
| 2026-05-06 16:46 | 41.06218 | 5.66829 | 34956 ft | 365 kts | 236° |
| 2026-05-06 16:46 | 41.03402 | 5.61221 | 34957 ft | 365 kts | 236° |
| 2026-05-06 16:47 | 41.00588 | 5.55608 | 34954 ft | 365 kts | 236° |
| 2026-05-06 16:47 | 40.97772 | 5.50005 | 34955 ft | 365 kts | 236° |
| 2026-05-06 16:48 | 40.95432 | 5.45363 | 34953 ft | 365 kts | 236° |
| 2026-05-06 16:48 | 40.92607 | 5.39776 | 34952 ft | 365 kts | 236° |
| 2026-05-06 16:49 | 40.89783 | 5.34199 | 34951 ft | 365 kts | 236° |
| 2026-05-06 16:49 | 40.86959 | 5.28623 | 34951 ft | 365 kts | 236° |
| 2026-05-06 16:50 | 40.84137 | 5.23056 | 34953 ft | 364 kts | 236° |
| 2026-05-06 16:50 | 40.81334 | 5.17538 | 34956 ft | 364 kts | 236° |
| 2026-05-06 16:51 | 40.78505 | 5.11983 | 34955 ft | 364 kts | 236° |
| 2026-05-06 16:51 | 40.75678 | 5.06448 | 34955 ft | 363 kts | 236° |
| 2026-05-06 16:52 | 40.72855 | 5.00920 | 34956 ft | 363 kts | 236° |
| 2026-05-06 16:52 | 40.70028 | 4.95396 | 34954 ft | 363 kts | 236° |
| 2026-05-06 16:53 | 40.67199 | 4.89880 | 34950 ft | 363 kts | 236° |
| 2026-05-06 16:53 | 40.64378 | 4.84404 | 34947 ft | 363 kts | 236° |
| 2026-05-06 16:54 | 40.61537 | 4.78896 | 34944 ft | 363 kts | 236° |
| 2026-05-06 16:54 | 40.58703 | 4.73398 | 34945 ft | 363 kts | 236° |
| 2026-05-06 16:55 | 40.55865 | 4.67905 | 34946 ft | 363 kts | 235° |
| 2026-05-06 16:55 | 40.53437 | 4.62094 | 34942 ft | 363 kts | 241° |
| 2026-05-06 16:56 | 40.51123 | 4.56194 | 34941 ft | 363 kts | 241° |
| 2026-05-06 16:56 | 40.48800 | 4.50297 | 34944 ft | 363 kts | 241° |
| 2026-05-06 16:57 | 40.46484 | 4.44445 | 34942 ft | 363 kts | 241° |
| 2026-05-06 16:57 | 40.44156 | 4.38564 | 34940 ft | 363 kts | 241° |
| 2026-05-06 16:58 | 40.41833 | 4.32689 | 34941 ft | 363 kts | 241° |
| 2026-05-06 16:58 | 40.39613 | 4.27094 | 34940 ft | 362 kts | 241° |
| 2026-05-06 16:59 | 40.37302 | 4.21307 | 34940 ft | 362 kts | 241° |
| 2026-05-06 16:59 | 40.34984 | 4.15490 | 34943 ft | 362 kts | 241° |
| 2026-05-06 17:00 | 40.32646 | 4.09637 | 34940 ft | 362 kts | 241° |
| 2026-05-06 17:00 | 40.30307 | 4.03802 | 34946 ft | 362 kts | 241° |
| 2026-05-06 17:01 | 40.27965 | 3.97966 | 34943 ft | 362 kts | 241° |
| 2026-05-06 17:01 | 40.25627 | 3.92137 | 34942 ft | 361 kts | 241° |
| 2026-05-06 17:02 | 40.23286 | 3.86316 | 34947 ft | 361 kts | 241° |
| 2026-05-06 17:02 | 40.20935 | 3.80508 | 34947 ft | 361 kts | 241° |
| 2026-05-06 17:03 | 40.18602 | 3.74738 | 34956 ft | 361 kts | 241° |
| 2026-05-06 17:03 | 40.16253 | 3.68931 | 34950 ft | 361 kts | 241° |
| 2026-05-06 17:04 | 40.13904 | 3.63134 | 34947 ft | 361 kts | 241° |
| 2026-05-06 17:04 | 40.11543 | 3.57331 | 34945 ft | 361 kts | 241° |
| 2026-05-06 17:05 | 40.09183 | 3.51538 | 34946 ft | 361 kts | 241° |
| 2026-05-06 17:05 | 40.06823 | 3.45748 | 34942 ft | 361 kts | 241° |
| 2026-05-06 17:06 | 40.04459 | 3.39963 | 34938 ft | 361 kts | 241° |
| 2026-05-06 17:06 | 40.02094 | 3.34166 | 34939 ft | 361 kts | 241° |
| 2026-05-06 17:07 | 39.99726 | 3.28380 | 34941 ft | 361 kts | 241° |
| 2026-05-06 17:07 | 39.97358 | 3.22639 | 34943 ft | 362 kts | 241° |
| 2026-05-06 17:08 | 39.94974 | 3.16867 | 34944 ft | 362 kts | 241° |
| 2026-05-06 17:08 | 39.92068 | 3.11552 | 34940 ft | 363 kts | 225° |
| 2026-05-06 17:09 | 39.87503 | 3.07634 | 34938 ft | 369 kts | 214° |
| 2026-05-06 17:09 | 39.83049 | 3.04404 | 34932 ft | 369 kts | 214° |
| 2026-05-06 17:10 | 39.78556 | 3.01135 | 34929 ft | 370 kts | 214° |
| 2026-05-06 17:10 | 39.74064 | 2.97867 | 34925 ft | 370 kts | 214° |
| 2026-05-06 17:11 | 39.69583 | 2.94624 | 34925 ft | 371 kts | 214° |
| 2026-05-06 17:11 | 39.65064 | 2.91359 | 34922 ft | 371 kts | 214° |
| 2026-05-06 17:12 | 39.60544 | 2.88093 | 34925 ft | 372 kts | 214° |
| 2026-05-06 17:12 | 39.56784 | 2.85376 | 34926 ft | 372 kts | 214° |
| 2026-05-06 17:13 | 39.52251 | 2.82112 | 34931 ft | 373 kts | 214° |
| 2026-05-06 17:13 | 39.46974 | 2.78310 | 34929 ft | 373 kts | 214° |
| 2026-05-06 17:14 | 39.43375 | 2.75231 | 34930 ft | 367 kts | 225° |
| 2026-05-06 17:14 | 39.41620 | 2.72845 | 34765 ft | 364 kts | 232° |
| 2026-05-06 17:14 | 39.40047 | 2.70349 | 34525 ft | 360 kts | 232° |
| 2026-05-06 17:14 | 39.38472 | 2.67840 | 34272 ft | 355 kts | 232° |
| 2026-05-06 17:15 | 39.36927 | 2.65380 | 33864 ft | 350 kts | 232° |
| 2026-05-06 17:15 | 39.35392 | 2.62939 | 33410 ft | 345 kts | 232° |
| 2026-05-06 17:15 | 39.33904 | 2.60579 | 33005 ft | 340 kts | 232° |
| 2026-05-06 17:15 | 39.32407 | 2.58205 | 32595 ft | 342 kts | 232° |
| 2026-05-06 17:16 | 39.30905 | 2.55822 | 32188 ft | 341 kts | 232° |
| 2026-05-06 17:16 | 39.29406 | 2.53450 | 31778 ft | 340 kts | 232° |
| 2026-05-06 17:16 | 39.27914 | 2.51091 | 31373 ft | 338 kts | 232° |
| 2026-05-06 17:16 | 39.26430 | 2.48744 | 30977 ft | 336 kts | 232° |
| 2026-05-06 17:17 | 39.24954 | 2.46406 | 30587 ft | 334 kts | 232° |
| 2026-05-06 17:17 | 39.23488 | 2.44086 | 30196 ft | 333 kts | 232° |
| 2026-05-06 17:17 | 39.22026 | 2.41779 | 29785 ft | 331 kts | 232° |
| 2026-05-06 17:17 | 39.20571 | 2.39487 | 29391 ft | 329 kts | 232° |
| 2026-05-06 17:18 | 39.19124 | 2.37210 | 29032 ft | 328 kts | 232° |
| 2026-05-06 17:18 | 39.17699 | 2.34974 | 28667 ft | 326 kts | 232° |
| 2026-05-06 17:18 | 39.16261 | 2.32719 | 28302 ft | 325 kts | 232° |
| 2026-05-06 17:18 | 39.14829 | 2.30478 | 27944 ft | 323 kts | 232° |
| 2026-05-06 17:19 | 39.13402 | 2.28246 | 27592 ft | 322 kts | 232° |
| 2026-05-06 17:19 | 39.11979 | 2.26023 | 27231 ft | 321 kts | 233° |
| 2026-05-06 17:19 | 39.10567 | 2.23812 | 26870 ft | 319 kts | 233° |
| 2026-05-06 17:19 | 39.09161 | 2.21606 | 26509 ft | 318 kts | 233° |
| 2026-05-06 17:20 | 39.07757 | 2.19408 | 26139 ft | 317 kts | 233° |
| 2026-05-06 17:20 | 39.06361 | 2.17224 | 25765 ft | 315 kts | 233° |
| 2026-05-06 17:20 | 39.04967 | 2.15047 | 25399 ft | 314 kts | 233° |
| 2026-05-06 17:20 | 39.03578 | 2.12879 | 25011 ft | 313 kts | 233° |
| 2026-05-06 17:21 | 39.02197 | 2.10719 | 24631 ft | 312 kts | 233° |
| 2026-05-06 17:21 | 39.00822 | 2.08569 | 24247 ft | 311 kts | 233° |
| 2026-05-06 17:21 | 38.99470 | 2.06454 | 23858 ft | 309 kts | 233° |
| 2026-05-06 17:21 | 38.98095 | 2.04309 | 23457 ft | 310 kts | 233° |
| 2026-05-06 17:22 | 38.96720 | 2.02168 | 23026 ft | 310 kts | 233° |
| 2026-05-06 17:22 | 38.95344 | 2.00032 | 22644 ft | 309 kts | 233° |
| 2026-05-06 17:22 | 38.93975 | 1.97908 | 22255 ft | 308 kts | 233° |
| 2026-05-06 17:22 | 38.92610 | 1.95792 | 21872 ft | 307 kts | 233° |
| 2026-05-06 17:23 | 38.91311 | 1.93626 | 21490 ft | 304 kts | 240° |
| 2026-05-06 17:23 | 38.90397 | 1.91191 | 21079 ft | 302 kts | 251° |
| 2026-05-06 17:23 | 38.89850 | 1.88598 | 20660 ft | 301 kts | 255° |
| 2026-05-06 17:23 | 38.89326 | 1.86003 | 20246 ft | 300 kts | 255° |
| 2026-05-06 17:24 | 38.88798 | 1.83422 | 19847 ft | 299 kts | 255° |
| 2026-05-06 17:24 | 38.88267 | 1.80851 | 19445 ft | 298 kts | 255° |
| 2026-05-06 17:24 | 38.87735 | 1.78287 | 19044 ft | 296 kts | 255° |
| 2026-05-06 17:24 | 38.87205 | 1.75737 | 18647 ft | 296 kts | 255° |
| 2026-05-06 17:25 | 38.86679 | 1.73186 | 18260 ft | 295 kts | 255° |
| 2026-05-06 17:25 | 38.86161 | 1.70673 | 17882 ft | 293 kts | 255° |
| 2026-05-06 17:25 | 38.85641 | 1.68158 | 17510 ft | 290 kts | 255° |
| 2026-05-06 17:25 | 38.85124 | 1.65662 | 17143 ft | 288 kts | 255° |
| 2026-05-06 17:26 | 38.84610 | 1.63184 | 16776 ft | 286 kts | 254° |
| 2026-05-06 17:26 | 38.84099 | 1.60716 | 16414 ft | 285 kts | 254° |
| 2026-05-06 17:26 | 38.83588 | 1.58265 | 16047 ft | 284 kts | 254° |
| 2026-05-06 17:26 | 38.83057 | 1.55832 | 15693 ft | 283 kts | 253° |
| 2026-05-06 17:27 | 38.82518 | 1.53405 | 15343 ft | 282 kts | 253° |
| 2026-05-06 17:27 | 38.81978 | 1.50994 | 14981 ft | 281 kts | 253° |
| 2026-05-06 17:27 | 38.81444 | 1.48613 | 14631 ft | 281 kts | 253° |
| 2026-05-06 17:27 | 38.80898 | 1.46176 | 14274 ft | 280 kts | 253° |
| 2026-05-06 17:28 | 38.80364 | 1.43801 | 13925 ft | 280 kts | 251° |
| 2026-05-06 17:28 | 38.79578 | 1.41528 | 13553 ft | 279 kts | 242° |
| 2026-05-06 17:28 | 38.78669 | 1.39327 | 13181 ft | 278 kts | 242° |
| 2026-05-06 17:28 | 38.77764 | 1.37139 | 12822 ft | 277 kts | 242° |
| 2026-05-06 17:29 | 38.76863 | 1.34965 | 12473 ft | 275 kts | 242° |
| 2026-05-06 17:29 | 38.75986 | 1.32848 | 12314 ft | 261 kts | 242° |
| 2026-05-06 17:29 | 38.75150 | 1.30834 | 12188 ft | 252 kts | 242° |
| 2026-05-06 17:29 | 38.74340 | 1.28889 | 12033 ft | 244 kts | 242° |
| 2026-05-06 17:30 | 38.73545 | 1.26983 | 11778 ft | 242 kts | 242° |
| 2026-05-06 17:30 | 38.72753 | 1.25084 | 11534 ft | 242 kts | 242° |
| 2026-05-06 17:30 | 38.71958 | 1.23184 | 11225 ft | 242 kts | 242° |
| 2026-05-06 17:30 | 38.71164 | 1.21284 | 10886 ft | 242 kts | 242° |
| 2026-05-06 17:31 | 38.70368 | 1.19380 | 10541 ft | 243 kts | 243° |
| 2026-05-06 17:31 | 38.69571 | 1.17474 | 10191 ft | 243 kts | 243° |
| 2026-05-06 17:31 | 38.68773 | 1.15560 | 9852 ft | 244 kts | 243° |
| 2026-05-06 17:31 | 38.67971 | 1.13639 | 9473 ft | 244 kts | 243° |
| 2026-05-06 17:32 | 38.67172 | 1.11723 | 9111 ft | 243 kts | 243° |
| 2026-05-06 17:32 | 38.66378 | 1.09820 | 8767 ft | 242 kts | 243° |
| 2026-05-06 17:32 | 38.65586 | 1.07924 | 8429 ft | 241 kts | 243° |
| 2026-05-06 17:32 | 38.64819 | 1.06059 | 8085 ft | 239 kts | 247° |
| 2026-05-06 17:33 | 38.64423 | 1.03994 | 7479 ft | 241 kts | 270° |
| 2026-05-06 17:33 | 38.64783 | 1.01912 | 6848 ft | 243 kts | 297° |
| 2026-05-06 17:33 | 38.65849 | 1.00249 | 6223 ft | 245 kts | 321° |
| 2026-05-06 17:33 | 38.67355 | 0.99221 | 5560 ft | 248 kts | 342° |
| 2026-05-06 17:34 | 38.69072 | 0.99000 | 4930 ft | 250 kts | 6° |
| 2026-05-06 17:34 | 38.70691 | 0.99634 | 4597 ft | 238 kts | 29° |
| 2026-05-06 17:34 | 38.71971 | 1.00919 | 4383 ft | 233 kts | 50° |
| 2026-05-06 17:34 | 38.72846 | 1.02652 | 4175 ft | 231 kts | 63° |
| 2026-05-06 17:35 | 38.73604 | 1.04467 | 3936 ft | 230 kts | 63° |
| 2026-05-06 17:35 | 38.74354 | 1.06258 | 3789 ft | 224 kts | 63° |
| 2026-05-06 17:35 | 38.75071 | 1.07969 | 3729 ft | 211 kts | 63° |
| 2026-05-06 17:36 | 38.76396 | 1.11139 | 3485 ft | 192 kts | 63° |
| 2026-05-06 17:36 | 38.77008 | 1.12603 | 3341 ft | 185 kts | 63° |
| 2026-05-06 17:36 | 38.77610 | 1.14045 | 3095 ft | 183 kts | 63° |
| 2026-05-06 17:36 | 38.78204 | 1.15469 | 2982 ft | 181 kts | 63° |
| 2026-05-06 17:37 | 38.78800 | 1.16898 | 2989 ft | 182 kts | 63° |
| 2026-05-06 17:37 | 38.79396 | 1.18328 | 2961 ft | 183 kts | 63° |
| 2026-05-06 17:37 | 38.79993 | 1.19760 | 2795 ft | 181 kts | 63° |
| 2026-05-06 17:37 | 38.80586 | 1.21183 | 2584 ft | 179 kts | 63° |
| 2026-05-06 17:38 | 38.81162 | 1.22566 | 2354 ft | 176 kts | 63° |
| 2026-05-06 17:38 | 38.81737 | 1.23947 | 2125 ft | 174 kts | 64° |
| 2026-05-06 17:38 | 38.82303 | 1.25308 | 1898 ft | 168 kts | 63° |
| 2026-05-06 17:38 | 38.82825 | 1.26563 | 1690 ft | 152 kts | 64° |
| 2026-05-06 17:39 | 38.83305 | 1.27716 | 1485 ft | 142 kts | 64° |
| 2026-05-06 17:39 | 38.83763 | 1.28818 | 1298 ft | 139 kts | 64° |
| 2026-05-06 17:39 | 38.84214 | 1.29905 | 1111 ft | 137 kts | 64° |
| 2026-05-06 17:39 | 38.84655 | 1.30965 | 918 ft | 136 kts | 64° |
| 2026-05-06 17:40 | 38.85106 | 1.32047 | 740 ft | 137 kts | 63° |
| 2026-05-06 17:40 | 38.85549 | 1.33123 | 566 ft | 136 kts | 64° |
| 2026-05-06 17:40 | 38.85991 | 1.34193 | 377 ft | 134 kts | 64° |
| 2026-05-06 17:40 | 38.86429 | 1.35252 | 181 ft | 133 kts | 63° |
| 2026-05-06 17:41 | 38.86864 | 1.36297 | 31 ft | 131 kts | 64° |
| 2026-05-06 17:41 | 38.87226 | 1.37168 | 30 ft | 87 kts | 62° |
| 2026-05-06 17:41 | 38.87419 | 1.37631 | 30 ft | 31 kts | 61° |
| 2026-05-06 17:41 | 38.87503 | 1.37777 | 33 ft | 13 kts | 45° |
| 2026-05-06 17:42 | 38.87561 | 1.37840 | 33 ft | 10 kts | 36° |
| 2026-05-06 17:42 | 38.87620 | 1.37890 | 33 ft | 11 kts | 32° |
| 2026-05-06 17:42 | 38.87681 | 1.37907 | 38 ft | 5 kts | 339° |
| 2026-05-06 17:42 | 38.87696 | 1.37872 | 41 ft | 7 kts | 281° |
| 2026-05-06 17:43 | 38.87684 | 1.37822 | 40 ft | 8 kts | 242° |
| 2026-05-06 17:43 | 38.87658 | 1.37759 | 42 ft | 7 kts | 242° |
| 2026-05-06 17:43 | 38.87634 | 1.37701 | 43 ft | 11 kts | 243° |
| 2026-05-06 17:43 | 38.87595 | 1.37607 | 44 ft | 7 kts | 242° |
| 2026-05-06 17:44 | 38.87587 | 1.37563 | 44 ft | 3 kts | 284° |
| 2026-05-06 17:44 | 38.87610 | 1.37537 | 46 ft | 4 kts | 330° |
| 2026-05-06 17:44 | 38.87647 | 1.37511 | 45 ft | 7 kts | 332° |
| 2026-05-06 17:44 | 38.87682 | 1.37486 | 47 ft | 7 kts | 327° |
| 2026-05-06 17:45 | 38.87699 | 1.37425 | 50 ft | 7 kts | 256° |
| 2026-05-06 17:45 | 38.87668 | 1.37347 | 47 ft | 13 kts | 242° |
| 2026-05-06 17:45 | 38.87627 | 1.37248 | 49 ft | 12 kts | 242° |
| 2026-05-06 17:45 | 38.87587 | 1.37151 | 47 ft | 12 kts | 242° |
| 2026-05-06 17:46 | 38.87547 | 1.37055 | 46 ft | 12 kts | 242° |
| 2026-05-06 17:46 | 38.87508 | 1.36961 | 46 ft | 12 kts | 242° |
| 2026-05-06 17:46 | 38.87471 | 1.36872 | 44 ft | 7 kts | 242° |
| 2026-05-06 17:46 | 38.87468 | 1.36845 | 44 ft | 2 kts | 291° |
| 2026-05-06 17:47 | 38.87481 | 1.36831 | 43 ft | 2 kts | 323° |
| 2026-05-06 17:47 | 38.87489 | 1.36825 | 46 ft | 3 kts | 329° |
| 2026-05-06 17:47 | 38.87496 | 1.36819 | 46 ft | 3 kts | 330° |
| 2026-05-06 17:47 | 38.87512 | 1.36808 | 47 ft | 0 kts | 331° |
| 2026-05-06 17:48 | 38.87519 | 1.36803 | 47 ft | 2 kts | 332° |
| 2026-05-06 17:48 | 38.87521 | 1.36802 | 47 ft | 0 kts | 332° |